createdAt,value
2019-01-08T00:00:03.820Z,9.46
2019-01-08T00:02:32.610Z,9.45
2019-01-08T00:05:00.792Z,9.44
2019-01-08T00:07:28.993Z,9.44
2019-01-08T00:09:57.174Z,9.42
2019-01-08T00:12:25.375Z,9.41
2019-01-08T00:14:53.557Z,9.37
2019-01-08T00:17:21.750Z,9.37
2019-01-08T00:19:49.936Z,9.33
2019-01-08T00:22:18.134Z,9.33
2019-01-08T00:24:46.329Z,9.32
2019-01-08T00:27:14.527Z,9.30
2019-01-08T00:29:42.715Z,9.29
2019-01-08T00:32:10.910Z,9.26
2019-01-08T00:34:39.098Z,9.24
2019-01-08T00:37:07.303Z,9.24
2019-01-08T00:39:35.491Z,9.21
2019-01-08T00:42:03.687Z,9.22
2019-01-08T00:44:31.875Z,9.20
2019-01-08T00:47:00.089Z,9.18
2019-01-08T00:49:28.274Z,9.17
2019-01-08T00:51:56.465Z,9.12
2019-01-08T00:54:24.652Z,9.13
2019-01-08T00:56:52.853Z,9.15
2019-01-08T00:59:21.041Z,9.17
2019-01-08T01:01:49.245Z,9.16
2019-01-08T01:04:17.426Z,9.18
2019-01-08T01:06:45.625Z,9.16
2019-01-08T01:09:13.814Z,9.14
2019-01-08T01:11:42.013Z,9.13
2019-01-08T01:14:10.198Z,9.12
2019-01-08T01:16:38.405Z,9.12
2019-01-08T01:19:06.598Z,9.12
2019-01-08T01:21:34.806Z,9.11
2019-01-08T01:24:02.988Z,9.11
2019-01-08T01:26:31.181Z,9.10
2019-01-08T01:29:00.263Z,9.09
2019-01-08T01:31:29.281Z,9.08
2019-01-08T01:33:57.462Z,9.06
2019-01-08T01:36:25.670Z,9.05
2019-01-08T01:38:53.843Z,9.05
2019-01-08T01:41:22.038Z,9.05
2019-01-08T01:43:50.226Z,8.99
2019-01-08T01:46:18.421Z,8.94
2019-01-08T01:48:46.613Z,8.96
2019-01-08T01:51:14.813Z,8.92
2019-01-08T01:53:42.999Z,8.90
2019-01-08T01:56:11.185Z,8.86
2019-01-08T01:58:39.383Z,8.82
2019-01-08T02:01:07.568Z,8.82
2019-01-08T02:03:35.766Z,8.80
2019-01-08T02:06:03.952Z,8.80
2019-01-08T02:08:32.156Z,8.80
2019-01-08T02:11:00.337Z,8.79
2019-01-08T02:13:28.538Z,8.79
2019-01-08T02:15:56.723Z,8.82
2019-01-08T02:18:24.929Z,8.82
2019-01-08T02:20:53.108Z,8.84
2019-01-08T02:23:21.310Z,8.82
2019-01-08T02:25:49.489Z,8.82
2019-01-08T02:28:37.120Z,8.85
2019-01-08T02:31:05.315Z,8.86
2019-01-08T02:33:33.512Z,8.86
2019-01-08T02:36:01.697Z,8.83
2019-01-08T02:41:05.273Z,8.78
2019-01-08T02:43:33.467Z,8.72
2019-01-08T02:46:01.675Z,8.65
2019-01-08T02:48:29.846Z,8.52
2019-01-08T02:50:58.031Z,8.42
2019-01-08T02:53:26.224Z,8.32
2019-01-08T02:55:54.414Z,8.19
2019-01-08T02:58:22.616Z,8.12
2019-01-08T03:00:50.893Z,8.08
2019-01-08T03:03:19.094Z,8.05
2019-01-08T03:06:27.418Z,8.00
2019-01-08T03:08:55.592Z,7.99
2019-01-08T03:11:23.778Z,8.01
2019-01-08T03:13:51.978Z,7.97
2019-01-08T03:16:20.163Z,7.94
2019-01-08T03:18:48.356Z,7.92
2019-01-08T03:21:16.539Z,7.92
2019-01-08T03:23:44.728Z,7.92
2019-01-08T03:26:12.918Z,7.94
2019-01-08T03:28:41.124Z,7.95
2019-01-08T03:31:09.314Z,7.92
2019-01-08T03:33:37.507Z,7.95
2019-01-08T03:36:05.690Z,7.98
2019-01-08T03:41:07.168Z,8.03
2019-01-08T03:43:35.365Z,8.03
2019-01-08T03:46:03.555Z,8.03
2019-01-08T03:48:31.740Z,8.02
2019-01-08T03:50:59.940Z,8.03
2019-01-08T03:53:28.121Z,8.02
2019-01-08T03:55:56.320Z,8.00
2019-01-08T03:58:24.508Z,8.02
2019-01-08T04:00:52.714Z,8.01
2019-01-08T04:03:20.895Z,8.02
2019-01-08T04:05:49.089Z,8.02
2019-01-08T04:08:17.277Z,8.01
2019-01-08T04:10:45.491Z,8.03
2019-01-08T04:13:13.668Z,8.00
2019-01-08T04:15:41.868Z,7.98
2019-01-08T04:18:10.055Z,7.99
2019-01-08T04:20:38.250Z,8.02
2019-01-08T04:23:06.433Z,8.04
2019-01-08T04:25:34.630Z,8.02
2019-01-08T04:28:02.819Z,8.01
2019-01-08T04:30:31.018Z,8.02
2019-01-08T04:32:59.202Z,8.03
2019-01-08T04:35:27.406Z,8.01
2019-01-08T04:37:55.593Z,7.99
2019-01-08T04:40:23.794Z,8.00
2019-01-08T04:42:51.977Z,8.00
2019-01-08T04:45:20.176Z,8.04
2019-01-08T04:47:48.363Z,8.03
2019-01-08T04:50:16.558Z,8.04
2019-01-08T04:52:44.748Z,8.06
2019-01-08T04:55:12.933Z,8.07
2019-01-08T04:57:41.130Z,8.05
2019-01-08T05:00:49.440Z,8.06
2019-01-08T05:03:17.626Z,8.02
2019-01-08T05:05:45.821Z,8.02
2019-01-08T05:08:14.012Z,8.01
2019-01-08T05:10:42.198Z,7.98
2019-01-08T05:13:10.399Z,7.94
2019-01-08T05:15:38.584Z,7.90
2019-01-08T05:18:06.784Z,7.88
2019-01-08T05:20:34.970Z,7.88
2019-01-08T05:23:03.160Z,7.86
2019-01-08T05:25:31.342Z,7.87
2019-01-08T05:28:39.648Z,7.86
2019-01-08T05:31:07.829Z,7.86
2019-01-08T05:33:36.015Z,7.84
2019-01-08T05:36:04.189Z,7.82
2019-01-08T05:38:32.377Z,7.80
2019-01-08T05:41:00.552Z,7.78
2019-01-08T05:43:28.743Z,7.78
2019-01-08T05:45:56.928Z,7.78
2019-01-08T05:48:25.119Z,7.79
2019-01-08T05:53:42.211Z,7.79
2019-01-08T05:56:10.369Z,7.81
2019-01-08T05:58:38.567Z,7.84
2019-01-08T06:01:06.747Z,7.87
2019-01-08T06:03:34.939Z,7.89
2019-01-08T06:06:03.121Z,7.93
2019-01-08T06:08:31.321Z,7.94
2019-01-08T06:10:59.496Z,7.93
2019-01-08T06:13:27.690Z,7.96
2019-01-08T06:15:55.874Z,7.96
2019-01-08T06:18:24.072Z,7.98
2019-01-08T06:20:52.249Z,8.00
2019-01-08T06:23:20.442Z,7.99
2019-01-08T06:29:02.580Z,8.01
2019-01-08T06:31:30.762Z,8.02
2019-01-08T06:33:58.963Z,8.01
2019-01-08T06:36:27.161Z,8.03
2019-01-08T06:38:55.343Z,8.03
2019-01-08T06:41:23.519Z,8.03
2019-01-08T06:43:51.718Z,8.07
2019-01-08T06:46:19.896Z,8.05
2019-01-08T06:48:48.446Z,8.06
2019-01-08T06:51:17.994Z,8.07
2019-01-08T06:53:46.190Z,8.06
2019-01-08T06:56:33.741Z,8.07
2019-01-08T06:59:01.928Z,8.03
2019-01-08T07:01:30.110Z,8.04
2019-01-08T07:03:58.301Z,8.00
2019-01-08T07:06:26.483Z,7.99
2019-01-08T07:09:34.788Z,7.97
2019-01-08T07:12:02.970Z,7.96
2019-01-08T07:14:31.169Z,7.94
2019-01-08T07:16:59.350Z,7.89
2019-01-08T07:19:27.554Z,7.92
2019-01-08T07:21:55.814Z,7.89
2019-01-08T07:24:24.009Z,7.90
2019-01-08T07:26:52.192Z,7.92
2019-01-08T07:29:20.459Z,7.92
2019-01-08T07:31:48.639Z,7.92
2019-01-08T07:34:16.827Z,7.96
2019-01-08T07:36:45.017Z,7.98
2019-01-08T07:39:13.209Z,7.98
2019-01-08T07:41:41.390Z,7.99
2019-01-08T07:44:09.580Z,7.99
2019-01-08T07:46:37.774Z,7.99
2019-01-08T07:49:05.943Z,8.04
2019-01-08T07:51:34.141Z,8.02
2019-01-08T07:54:02.320Z,8.05
2019-01-08T07:56:30.517Z,8.04
2019-01-08T07:58:58.702Z,8.06
2019-01-08T08:01:26.888Z,8.07
2019-01-08T08:03:55.078Z,8.14
2019-01-08T08:06:42.698Z,8.13
2019-01-08T08:09:10.874Z,8.10
2019-01-08T08:11:39.064Z,8.12
2019-01-08T08:14:07.249Z,8.11
2019-01-08T08:16:35.445Z,8.12
2019-01-08T08:19:03.630Z,8.16
2019-01-08T08:21:31.826Z,8.15
2019-01-08T08:24:00.004Z,8.15
2019-01-08T08:26:28.205Z,8.18
2019-01-08T08:29:15.809Z,8.20
2019-01-08T08:31:44.010Z,8.24
2019-01-08T08:34:12.190Z,8.24
2019-01-08T08:36:40.381Z,8.25
2019-01-08T08:39:08.567Z,8.25
2019-01-08T08:41:36.762Z,8.26
2019-01-08T08:44:04.937Z,8.28
2019-01-08T08:46:33.130Z,8.31
2019-01-08T08:49:01.308Z,8.33
2019-01-08T08:51:29.507Z,8.36
2019-01-08T08:53:57.690Z,8.35
2019-01-08T08:56:25.883Z,8.35
2019-01-08T08:58:54.067Z,8.35
2019-01-08T09:01:22.253Z,8.34
2019-01-08T09:03:50.434Z,8.35
2019-01-08T09:06:18.629Z,8.38
2019-01-08T09:08:46.808Z,8.35
2019-01-08T09:11:15.003Z,8.32
2019-01-08T09:13:43.190Z,8.30
2019-01-08T09:16:11.383Z,8.28
2019-01-08T09:18:39.566Z,8.27
2019-01-08T09:21:07.762Z,8.30
2019-01-08T09:23:35.944Z,8.35
2019-01-08T09:26:04.135Z,8.34
2019-01-08T09:28:32.321Z,8.33
2019-01-08T09:31:00.521Z,8.30
2019-01-08T09:33:28.693Z,8.27
2019-01-08T09:35:56.891Z,8.27
2019-01-08T09:38:25.065Z,8.27
2019-01-08T09:40:53.249Z,8.26
2019-01-08T09:43:21.467Z,8.26
2019-01-08T09:45:49.768Z,8.25
2019-01-08T09:48:17.973Z,8.25
2019-01-08T09:50:46.168Z,8.20
2019-01-08T09:53:14.365Z,8.19
2019-01-08T09:55:42.541Z,8.20
2019-01-08T09:58:10.740Z,8.22
2019-01-08T10:00:38.926Z,8.23
2019-01-08T10:03:07.117Z,8.26
2019-01-08T10:05:35.487Z,8.27
2019-01-08T10:08:03.696Z,8.31
2019-01-08T10:10:31.879Z,8.31
2019-01-08T10:13:00.070Z,8.31
2019-01-08T10:15:28.250Z,8.32
2019-01-08T10:17:56.440Z,8.32
2019-01-08T10:20:24.630Z,8.32
2019-01-08T10:22:52.824Z,8.31
2019-01-08T10:25:21.014Z,8.29
2019-01-08T10:27:49.211Z,8.30
2019-01-08T10:30:17.388Z,8.29
2019-01-08T10:32:45.585Z,8.32
2019-01-08T10:35:13.761Z,8.31
2019-01-08T10:37:42.023Z,8.34
2019-01-08T10:40:10.211Z,8.32
2019-01-08T10:42:38.402Z,8.33
2019-01-08T10:45:46.715Z,8.35
2019-01-08T10:48:14.902Z,8.38
2019-01-08T10:50:43.082Z,8.40
2019-01-08T10:53:11.275Z,8.40
2019-01-08T10:55:39.458Z,8.39
2019-01-08T10:58:07.648Z,8.38
2019-01-08T11:00:55.261Z,8.39
2019-01-08T11:03:23.442Z,8.45
2019-01-08T11:05:51.623Z,8.53
2019-01-08T11:08:19.810Z,8.55
2019-01-08T11:10:47.999Z,8.55
2019-01-08T11:13:16.187Z,8.55
2019-01-08T11:15:44.369Z,8.54
2019-01-08T11:18:12.568Z,8.58
2019-01-08T11:20:40.749Z,8.64
2019-01-08T11:23:09.067Z,8.64
2019-01-08T11:25:37.217Z,8.64
2019-01-08T11:28:05.408Z,8.63
2019-01-08T11:30:33.589Z,8.65
2019-01-08T11:33:01.784Z,8.65
2019-01-08T11:35:29.961Z,8.65
2019-01-08T11:37:58.151Z,8.64
2019-01-08T11:40:26.332Z,8.60
2019-01-08T11:42:54.660Z,8.56
2019-01-08T11:45:22.836Z,8.56
2019-01-08T11:47:51.015Z,8.58
2019-01-08T11:50:19.212Z,8.61
2019-01-08T11:52:55.043Z,8.64
2019-01-08T11:55:23.233Z,8.70
2019-01-08T11:57:51.414Z,8.71
2019-01-08T12:00:19.616Z,8.69
2019-01-08T12:02:48.173Z,8.74
2019-01-08T12:05:17.891Z,8.73
2019-01-08T12:07:46.069Z,8.74
2019-01-08T12:10:14.257Z,8.74
2019-01-08T12:12:42.435Z,8.70
2019-01-08T12:15:10.633Z,8.66
2019-01-08T12:17:38.820Z,8.65
2019-01-08T12:20:47.124Z,8.65
2019-01-08T12:23:15.301Z,8.66
2019-01-08T12:25:43.493Z,8.61
2019-01-08T12:28:11.684Z,8.55
2019-01-08T12:30:39.873Z,8.50
2019-01-08T12:33:08.071Z,8.53
2019-01-08T12:35:36.263Z,8.52
2019-01-08T12:38:04.445Z,8.48
2019-01-08T12:40:32.640Z,8.44
2019-01-08T12:43:00.820Z,8.42
2019-01-08T12:45:29.011Z,8.42
2019-01-08T12:48:16.621Z,8.42
2019-01-08T12:50:44.814Z,8.41
2019-01-08T12:53:12.996Z,8.41
2019-01-08T12:55:41.195Z,8.38
2019-01-08T12:58:09.379Z,8.38
2019-01-08T13:00:37.581Z,8.38
2019-01-08T13:03:05.769Z,8.40
2019-01-08T13:05:33.967Z,8.43
2019-01-08T13:08:02.146Z,8.42
2019-01-08T13:10:30.349Z,8.45
2019-01-08T13:12:58.531Z,8.49
2019-01-08T13:15:26.723Z,8.52
2019-01-08T13:17:54.911Z,8.58
2019-01-08T13:20:23.105Z,8.60
2019-01-08T13:22:51.281Z,8.57
2019-01-08T13:25:19.467Z,8.53
2019-01-08T13:27:47.645Z,8.49
2019-01-08T13:30:15.841Z,8.48
2019-01-08T13:32:44.021Z,8.46
2019-01-08T13:35:12.220Z,8.48
2019-01-08T13:37:40.395Z,8.47
2019-01-08T13:40:08.589Z,8.44
2019-01-08T13:42:36.763Z,8.41
2019-01-08T13:45:45.081Z,8.40
2019-01-08T13:48:13.260Z,8.36
2019-01-08T13:50:41.448Z,8.28
2019-01-08T13:53:09.634Z,8.27
2019-01-08T13:55:37.834Z,8.27
2019-01-08T13:58:06.016Z,8.24
2019-01-08T14:00:34.214Z,8.25
2019-01-08T14:03:02.395Z,8.22
2019-01-08T14:05:30.593Z,8.21
2019-01-08T14:08:17.894Z,8.22
2019-01-08T14:10:46.094Z,8.21
2019-01-08T14:13:14.280Z,8.17
2019-01-08T14:15:42.475Z,8.10
2019-01-08T14:18:10.658Z,8.07
2019-01-08T14:20:38.869Z,8.06
2019-01-08T14:23:07.050Z,8.04
2019-01-08T14:25:35.250Z,8.01
2019-01-08T14:28:03.438Z,7.98
2019-01-08T14:30:31.634Z,7.94
2019-01-08T14:32:59.815Z,7.88
2019-01-08T14:35:28.010Z,7.84
2019-01-08T14:37:56.189Z,7.81
2019-01-08T14:40:24.386Z,7.83
2019-01-08T14:42:52.565Z,7.81
2019-01-08T14:45:20.760Z,7.80
2019-01-08T14:47:48.949Z,7.81
2019-01-08T14:50:17.146Z,7.79
2019-01-08T14:52:45.332Z,7.76
2019-01-08T14:55:13.532Z,7.74
2019-01-08T14:57:41.726Z,7.72
2019-01-08T15:00:50.051Z,7.71
2019-01-08T15:03:18.235Z,7.71
2019-01-08T15:05:46.434Z,7.64
2019-01-08T15:08:14.627Z,7.57
2019-01-08T15:10:42.823Z,7.53
2019-01-08T15:16:24.606Z,7.49
2019-01-08T15:18:52.799Z,7.45
2019-01-08T15:21:20.992Z,7.46
2019-01-08T15:23:49.199Z,7.50
2019-01-08T15:26:17.394Z,7.49
2019-01-08T15:28:45.574Z,7.48
2019-01-08T15:31:13.772Z,7.46
2019-01-08T15:33:41.969Z,7.43
2019-01-08T15:36:10.154Z,7.42
2019-01-08T15:38:57.448Z,7.42
2019-01-08T15:41:25.642Z,7.42
2019-01-08T15:43:53.832Z,7.40
2019-01-08T15:49:15.198Z,7.35
2019-01-08T15:51:43.431Z,7.32
2019-01-08T15:54:11.589Z,7.28
2019-01-08T15:56:39.781Z,7.19
2019-01-08T15:59:27.073Z,7.13
2019-01-08T16:01:55.281Z,7.12
2019-01-08T16:04:23.461Z,7.10
2019-01-08T16:06:51.669Z,7.07
2019-01-08T16:09:19.859Z,7.07
2019-01-08T16:14:21.511Z,7.11
2019-01-08T16:16:49.701Z,7.12
2019-01-08T16:19:17.888Z,7.12
2019-01-08T16:21:46.091Z,7.14
2019-01-08T16:24:14.276Z,7.18
2019-01-08T16:26:42.464Z,7.17
2019-01-08T16:29:29.771Z,7.16
2019-01-08T16:31:57.985Z,7.12
2019-01-08T16:34:26.176Z,7.06
2019-01-08T16:36:54.357Z,7.04
2019-01-08T16:39:41.915Z,7.05
2019-01-08T16:42:10.116Z,7.02
2019-01-08T16:44:38.302Z,7.02
2019-01-08T16:49:41.779Z,6.98
2019-01-08T16:52:29.423Z,6.99
2019-01-08T16:54:57.603Z,6.97
2019-01-08T16:57:45.227Z,6.93
2019-01-08T17:00:13.485Z,6.91
2019-01-08T17:02:41.700Z,6.88
2019-01-08T17:05:09.915Z,6.84
2019-01-08T17:07:38.056Z,6.82
2019-01-08T17:10:46.366Z,6.80
2019-01-08T17:13:14.556Z,6.78
2019-01-08T17:15:42.739Z,6.80
2019-01-08T17:18:10.934Z,6.83
2019-01-08T17:20:39.124Z,6.82
2019-01-08T17:23:07.323Z,6.77
2019-01-08T17:25:35.505Z,6.72
2019-01-08T17:28:03.717Z,6.73
2019-01-08T17:30:31.896Z,6.75
2019-01-08T17:33:00.077Z,6.73
2019-01-08T17:35:28.281Z,6.71
2019-01-08T17:37:56.461Z,6.71
2019-01-08T17:40:24.659Z,6.66
2019-01-08T17:43:11.959Z,6.61
2019-01-08T17:45:40.151Z,6.60
2019-01-08T17:48:08.337Z,6.61
2019-01-08T17:50:36.563Z,6.61
2019-01-08T17:53:04.714Z,6.61
2019-01-08T17:55:32.906Z,6.55
2019-01-08T17:58:39.900Z,6.51
2019-01-08T18:01:48.199Z,6.49
2019-01-08T18:04:16.394Z,6.45
2019-01-08T18:06:44.656Z,6.44
2019-01-08T18:09:52.974Z,6.42
2019-01-08T18:15:08.412Z,7.96
2019-01-08T18:20:50.610Z,7.34
2019-01-08T18:23:18.801Z,7.07
2019-01-08T18:25:47.004Z,6.94
2019-01-08T18:28:15.191Z,6.78
2019-01-08T18:33:16.798Z,6.60
2019-01-08T18:35:44.995Z,6.52
2019-01-08T18:38:13.189Z,6.48
2019-01-08T18:40:41.384Z,6.48
2019-01-08T18:43:14.072Z,6.47
2019-01-08T18:45:39.492Z,6.46
2019-01-08T18:48:27.040Z,6.46
2019-01-08T18:50:55.242Z,6.45
2019-01-08T18:56:10.668Z,6.41
2019-01-08T18:58:38.850Z,6.38
2019-01-08T19:01:07.046Z,6.39
2019-01-08T19:03:35.230Z,6.37
2019-01-08T19:09:16.222Z,6.41
2019-01-08T19:11:44.423Z,6.40
2019-01-08T19:14:31.967Z,6.36
2019-01-08T19:17:00.167Z,6.32
2019-01-08T19:19:28.359Z,6.31
2019-01-08T19:21:56.559Z,6.28
2019-01-08T19:24:24.740Z,6.24
2019-01-08T19:27:33.048Z,6.20
2019-01-08T19:30:01.248Z,6.19
2019-01-08T19:32:29.438Z,6.16
2019-01-08T19:34:57.619Z,6.14
2019-01-08T19:37:25.814Z,6.16
2019-01-08T19:39:54.003Z,6.16
2019-01-08T19:42:22.198Z,6.14
2019-01-08T19:44:50.390Z,6.12
2019-01-08T19:47:18.590Z,6.10
2019-01-08T19:49:46.774Z,6.07
2019-01-08T19:52:14.971Z,6.05
2019-01-08T19:54:43.155Z,6.08
2019-01-08T19:57:11.355Z,6.10
2019-01-08T20:00:19.699Z,6.10
2019-01-08T20:03:07.527Z,6.08
2019-01-08T20:05:35.720Z,6.07
2019-01-08T20:11:17.651Z,5.95
2019-01-08T20:13:45.836Z,5.88
2019-01-08T20:16:14.028Z,5.85
2019-01-08T20:18:45.295Z,5.83
2019-01-08T20:21:22.986Z,5.80
2019-01-08T20:23:51.178Z,5.73
2019-01-08T20:28:53.152Z,5.68
2019-01-08T20:31:21.344Z,5.66
2019-01-08T20:33:49.525Z,5.63
2019-01-08T20:36:17.726Z,5.59
2019-01-08T20:38:45.903Z,5.58
2019-01-08T20:41:14.102Z,5.53
2019-01-08T20:43:42.291Z,5.44
2019-01-08T20:46:10.566Z,5.43
2019-01-08T20:48:38.750Z,5.41
2019-01-08T20:51:06.953Z,5.36
2019-01-08T20:53:35.135Z,5.35
2019-01-08T20:56:03.322Z,5.32
2019-01-08T20:58:50.629Z,5.28
2019-01-08T21:01:18.831Z,5.28
2019-01-08T21:03:47.016Z,5.26
2019-01-08T21:06:15.329Z,5.27
2019-01-08T21:08:43.542Z,5.30
2019-01-08T21:11:31.100Z,5.38
2019-01-08T21:13:59.280Z,5.42
2019-01-08T21:16:27.517Z,5.45
2019-01-08T21:18:55.706Z,5.47
2019-01-08T21:21:23.886Z,5.42
2019-01-08T21:24:11.448Z,5.41
2019-01-08T21:26:39.640Z,5.39
2019-01-08T21:29:07.828Z,5.37
2019-01-08T21:31:36.018Z,5.33
2019-01-08T21:34:23.579Z,5.32
2019-01-08T21:36:51.783Z,5.33
2019-01-08T21:42:26.634Z,5.32
2019-01-08T21:44:54.824Z,5.29
2019-01-08T21:47:23.017Z,5.32
2019-01-08T21:49:51.211Z,5.33
2019-01-08T21:52:19.417Z,5.36
2019-01-08T21:54:47.599Z,5.33
2019-01-08T21:57:15.801Z,5.33
2019-01-08T21:59:43.991Z,5.31
2019-01-08T22:02:12.194Z,5.31
2019-01-08T22:04:40.365Z,5.29
2019-01-08T22:07:08.558Z,5.30
2019-01-08T22:09:36.750Z,5.30
2019-01-08T22:12:04.938Z,5.36
2019-01-08T22:14:33.140Z,5.34
2019-01-08T22:17:01.328Z,5.33
2019-01-08T22:19:29.522Z,5.34
2019-01-08T22:21:57.701Z,5.36
2019-01-08T22:24:25.957Z,5.36
2019-01-08T22:26:54.138Z,5.39
2019-01-08T22:29:22.334Z,5.41
2019-01-08T22:31:50.523Z,5.42
2019-01-08T22:34:18.715Z,5.41
2019-01-08T22:36:46.899Z,5.41
2019-01-08T22:39:15.095Z,5.39
2019-01-08T22:41:43.282Z,5.41
2019-01-08T22:44:11.479Z,5.40
2019-01-08T22:46:39.660Z,5.39
2019-01-08T22:49:07.855Z,5.38
2019-01-08T22:51:36.043Z,5.39
2019-01-08T22:56:39.588Z,5.42
2019-01-08T22:59:07.787Z,5.44
2019-01-08T23:04:24.855Z,5.46
2019-01-08T23:07:12.474Z,5.49
2019-01-08T23:09:40.674Z,5.48
2019-01-08T23:12:08.858Z,5.46
2019-01-08T23:14:37.053Z,5.47
2019-01-08T23:17:05.233Z,5.49
2019-01-08T23:19:33.430Z,5.51
2019-01-08T23:22:01.615Z,5.55
2019-01-08T23:24:29.808Z,5.61
2019-01-08T23:26:57.989Z,5.65
2019-01-08T23:29:26.189Z,5.67
2019-01-08T23:31:54.375Z,5.68
2019-01-08T23:34:22.565Z,5.65
2019-01-08T23:36:50.750Z,5.65
2019-01-08T23:39:18.945Z,5.63
2019-01-08T23:41:47.139Z,5.63
2019-01-08T23:44:15.341Z,5.64
2019-01-08T23:46:43.522Z,5.65
2019-01-08T23:49:11.712Z,5.65
2019-01-08T23:51:39.893Z,5.61
2019-01-08T23:54:08.097Z,5.60
2019-01-08T23:56:36.269Z,5.63
2019-01-08T23:59:04.466Z,5.65
